Time;durP1;ratioP1;P1;durP2;ratioP2;P2;SDS_P1;SDS_P2;PMS_P1;PMS_P2;Temp;Humidity;BMP_temperature;BMP_pressure;BME280_temperature;BME280_humidity;BME280_pressure;Samples;Min_cycle;Max_cycle;Signal;HPM_P1;HPM_P2
2021/12/24 00:00:04;;;;;;;1.40;1.23;;;2.20;99.90;;;;;;4450394;32;20056;-64
2021/12/24 00:02:30;;;;;;;1.37;1.27;;;2.10;99.90;;;;;;4456708;32;20056;-64
2021/12/24 00:04:55;;;;;;;0.77;0.77;;;2.20;99.90;;;;;;4448835;32;20138;-64
2021/12/24 00:07:20;;;;;;;1.12;1.10;;;2.10;99.90;;;;;;4451886;32;20045;-64
2021/12/24 00:09:46;;;;;;;1.25;0.88;;;2.20;99.90;;;;;;4445793;32;20061;-65
2021/12/24 00:12:16;;;;;;;2.33;1.42;;;2.20;99.90;;;;;;4444939;32;20518;-64
2021/12/24 00:14:47;;;;;;;2.50;1.73;;;2.20;99.90;;;;;;4443944;32;20053;-64
2021/12/24 00:17:15;;;;;;;1.42;1.12;;;2.20;99.90;;;;;;4448253;32;20050;-64
2021/12/24 00:19:59;;;;;;;1.90;1.70;;;2.20;99.90;;;;;;4444012;32;20061;-63
2021/12/24 00:35:15;;;;;;;0.62;0.62;;;2.20;99.90;;;;;;4447548;32;20061;-64
2021/12/24 00:35:57;;;;;;;1.87;1.55;;;2.30;99.90;;;;;;4442791;32;20072;-63
2021/12/24 00:38:23;;;;;;;0.75;0.75;;;2.30;99.90;;;;;;4444055;32;20045;-64
2021/12/24 00:40:48;;;;;;;3.08;1.08;;;2.30;99.90;;;;;;4444141;32;20505;-63
2021/12/24 00:43:16;;;;;;;2.62;1.98;;;2.40;99.90;;;;;;4443946;32;20056;-65
2021/12/24 00:45:44;;;;;;;3.47;1.92;;;2.40;99.90;;;;;;4444931;32;20488;-65
2021/12/24 00:48:12;;;;;;;0.50;0.50;;;2.40;99.90;;;;;;4445275;32;20401;-63
2021/12/24 00:51:18;;;;;;;1.65;0.85;;;2.40;99.90;;;;;;4454236;32;20068;-64
2021/12/24 00:56:05;;;;;;;4.37;2.47;;;2.40;99.90;;;;;;4444731;32;20152;-63
2021/12/24 00:58:31;;;;;;;2.80;1.25;;;2.50;99.90;;;;;;4444768;32;20092;-63
2021/12/24 01:00:57;;;;;;;1.27;1.23;;;2.50;99.90;;;;;;4445383;32;20297;-64
2021/12/24 01:03:24;;;;;;;1.20;1.10;;;2.50;99.90;;;;;;4444592;32;20122;-64
2021/12/24 01:05:49;;;;;;;0.75;0.75;;;2.50;99.90;;;;;;4451852;32;20064;-63
2021/12/24 01:08:16;;;;;;;1.12;1.02;;;2.60;99.90;;;;;;4443421;32;20045;-64
2021/12/24 01:10:46;;;;;;;2.05;1.85;;;2.60;99.90;;;;;;4456588;32;20434;-64
2021/12/24 01:13:13;;;;;;;3.60;1.50;;;2.60;99.90;;;;;;4448173;32;20143;-64
2021/12/24 01:15:51;;;;;;;2.83;1.12;;;2.60;99.90;;;;;;4445277;32;20168;-64
2021/12/24 01:18:27;;;;;;;3.35;1.58;;;2.70;99.90;;;;;;4446052;32;20069;-63
2021/12/24 01:21:07;;;;;;;2.30;1.83;;;2.70;99.90;;;;;;4443220;32;20081;-63
2021/12/24 01:23:45;;;;;;;1.67;1.35;;;2.70;99.90;;;;;;4442275;32;20088;-65
2021/12/24 01:26:17;;;;;;;1.98;1.25;;;2.70;99.90;;;;;;4453984;32;20077;-64
2021/12/24 01:29:03;;;;;;;1.65;1.52;;;2.70;99.90;;;;;;4447057;32;20592;-63
2021/12/24 01:39:10;;;;;;;1.02;1.00;;;2.80;99.90;;;;;;4426275;32;20128;-64
2021/12/24 01:40:06;;;;;;;1.58;0.88;;;2.80;99.90;;;;;;4439918;32;20093;-63
2021/12/24 01:42:47;;;;;;;7.53;3.42;;;2.80;99.90;;;;;;4436034;32;20536;-63
2021/12/24 01:45:19;;;;;;;3.08;2.40;;;2.80;99.90;;;;;;4454874;32;20068;-64
2021/12/24 01:47:45;;;;;;;0.75;0.75;;;2.80;99.90;;;;;;4451357;32;20080;-64
2021/12/24 01:50:11;;;;;;;2.05;1.48;;;2.80;99.90;;;;;;4455606;32;20139;-64
2021/12/24 01:52:38;;;;;;;1.67;1.52;;;2.90;99.90;;;;;;4444292;32;20096;-64
2021/12/24 01:55:04;;;;;;;2.50;1.65;;;3.00;99.90;;;;;;4446862;32;20081;-63
2021/12/24 01:57:32;;;;;;;1.23;1.12;;;3.00;99.90;;;;;;4448611;32;20131;-63
2021/12/24 01:59:59;;;;;;;1.45;1.33;;;2.90;99.90;;;;;;4458603;32;20061;-64
2021/12/24 02:02:24;;;;;;;3.20;1.95;;;2.90;99.90;;;;;;4446836;32;20119;-64
2021/12/24 02:04:50;;;;;;;0.57;0.57;;;2.80;99.90;;;;;;4460813;32;20049;-63
2021/12/24 02:07:16;;;;;;;2.40;1.45;;;2.80;99.90;;;;;;4445949;32;20081;-63
2021/12/24 02:09:41;;;;;;;1.17;1.12;;;2.90;99.90;;;;;;4446592;32;20123;-63
2021/12/24 02:12:09;;;;;;;2.80;1.33;;;2.90;99.90;;;;;;4449636;32;20100;-63
2021/12/24 02:14:38;;;;;;;3.03;1.15;;;2.80;99.90;;;;;;4447923;32;20136;-64
2021/12/24 02:28:30;;;;;;;2.12;1.33;;;2.80;99.90;;;;;;4445171;32;20089;-64
2021/12/24 02:30:54;;;;;;;1.65;1.10;;;2.80;99.90;;;;;;4433517;32;20127;-65
2021/12/24 02:33:20;;;;;;;10.55;1.12;;;2.80;99.90;;;;;;4451782;32;20069;-64
2021/12/24 02:35:45;;;;;;;2.60;1.10;;;2.80;99.90;;;;;;4446663;32;20080;-64
2021/12/24 02:38:11;;;;;;;1.98;1.80;;;2.80;99.90;;;;;;4447336;32;20081;-63
2021/12/24 02:40:37;;;;;;;4.28;1.48;;;2.70;99.90;;;;;;4445695;32;20073;-64
2021/12/24 02:43:04;;;;;;;0.55;0.55;;;2.80;99.90;;;;;;4451875;32;20078;-63
2021/12/24 02:45:33;;;;;;;1.60;0.93;;;2.80;99.90;;;;;;4434059;32;20078;-64
2021/12/24 02:54:21;;;;;;;1.92;1.42;;;2.80;99.90;;;;;;4438725;32;20531;-63
2021/12/24 02:56:08;;;;;;;0.77;0.77;;;2.90;99.90;;;;;;4446017;32;20049;-64
2021/12/24 02:58:44;;;;;;;2.25;1.02;;;2.90;99.90;;;;;;4455562;32;20465;-63
2021/12/24 03:01:13;;;;;;;0.80;0.80;;;3.00;99.90;;;;;;4448592;32;20579;-64
2021/12/24 03:03:39;;;;;;;1.15;1.05;;;3.10;99.90;;;;;;4447657;32;20582;-63
2021/12/24 03:06:06;;;;;;;12.70;1.62;;;3.20;99.90;;;;;;4445349;32;20115;-63
2021/12/24 03:08:32;;;;;;;1.50;0.75;;;3.20;99.90;;;;;;4453308;32;20053;-63
2021/12/24 03:10:58;;;;;;;1.95;1.12;;;3.10;99.90;;;;;;4446161;32;20119;-64
2021/12/24 03:13:25;;;;;;;1.08;1.02;;;3.00;99.90;;;;;;4444646;32;20572;-64
2021/12/24 03:15:53;;;;;;;0.95;0.80;;;3.10;99.90;;;;;;4444449;32;20073;-63
2021/12/24 03:18:24;;;;;;;1.02;0.85;;;3.00;99.90;;;;;;4445136;32;20086;-63
2021/12/24 03:20:58;;;;;;;21.60;1.70;;;3.00;99.90;;;;;;4445743;32;20155;-64
2021/12/24 03:23:35;;;;;;;0.85;0.85;;;3.00;99.90;;;;;;4445970;32;20111;-64
2021/12/24 03:26:02;;;;;;;1.35;1.25;;;3.20;99.90;;;;;;4452421;32;20069;-64
2021/12/24 03:28:28;;;;;;;0.88;0.88;;;3.30;99.90;;;;;;4442654;32;20058;-64
2021/12/24 03:30:53;;;;;;;0.90;0.88;;;3.40;99.90;;;;;;4443087;32;20085;-64
2021/12/24 03:33:19;;;;;;;0.68;0.68;;;3.40;99.90;;;;;;4449629;32;20061;-64
2021/12/24 03:35:44;;;;;;;0.98;0.82;;;3.40;99.90;;;;;;4446446;32;20061;-65
2021/12/24 03:38:10;;;;;;;0.70;0.70;;;3.50;99.90;;;;;;4445643;32;20060;-64
2021/12/24 03:40:36;;;;;;;0.77;0.77;;;3.60;99.90;;;;;;4444454;32;20069;-64
2021/12/24 03:43:01;;;;;;;2.22;1.35;;;3.70;99.90;;;;;;4444725;32;20064;-64
2021/12/24 03:45:34;;;;;;;0.50;0.50;;;3.90;99.90;;;;;;4446928;32;20062;-64
2021/12/24 03:48:04;;;;;;;0.52;0.52;;;3.90;99.90;;;;;;4445342;32;20065;-64
2021/12/24 03:50:47;;;;;;;1.02;1.02;;;4.00;99.90;;;;;;4445158;32;20386;-64
2021/12/24 03:55:12;;;;;;;0.40;0.40;;;4.00;99.90;;;;;;4444934;32;20080;-64
2021/12/24 03:55:58;;;;;;;3.47;1.12;;;4.00;99.90;;;;;;4443693;32;20065;-64
2021/12/24 03:58:23;;;;;;;1.02;0.93;;;4.10;99.90;;;;;;4445053;32;20168;-64
2021/12/24 04:00:49;;;;;;;1.15;0.70;;;4.10;99.90;;;;;;4445780;32;20065;-63
2021/12/24 04:03:15;;;;;;;0.40;0.40;;;4.10;99.90;;;;;;4451661;32;20200;-63
2021/12/24 04:05:40;;;;;;;0.60;0.60;;;4.10;99.90;;;;;;4452329;32;20069;-64
2021/12/24 04:08:06;;;;;;;6.12;0.80;;;4.20;99.90;;;;;;4449644;32;20065;-64
2021/12/24 04:10:40;;;;;;;0.77;0.77;;;4.20;99.90;;;;;;4444473;32;20060;-64
2021/12/24 04:13:07;;;;;;;0.45;0.45;;;4.20;99.90;;;;;;4444211;32;20065;-64
2021/12/24 04:15:33;;;;;;;7.18;1.15;;;4.20;99.90;;;;;;4450565;32;20062;-65
2021/12/24 04:17:59;;;;;;;0.50;0.50;;;4.30;99.90;;;;;;4444338;32;20418;-64
2021/12/24 04:25:09;;;;;;;0.98;0.93;;;4.30;99.90;;;;;;4434604;32;20459;-64
2021/12/24 04:25:55;;;;;;;0.80;0.80;;;4.30;99.90;;;;;;4433935;32;20082;-64
2021/12/24 04:28:20;;;;;;;1.02;0.73;;;4.30;99.90;;;;;;4444900;32;20061;-64
2021/12/24 04:30:51;;;;;;;0.50;0.50;;;4.40;99.90;;;;;;4443613;32;20060;-64
2021/12/24 04:33:25;;;;;;;0.60;0.60;;;4.40;99.90;;;;;;4453359;32;84022;-63
2021/12/24 04:36:01;;;;;;;0.80;0.80;;;4.40;99.90;;;;;;4452395;32;20061;-64
2021/12/24 04:38:39;;;;;;;0.62;0.62;;;4.30;99.90;;;;;;4442188;32;20053;-63
2021/12/24 04:51:05;;;;;;;1.35;1.02;;;4.40;99.90;;;;;;4436050;32;20090;-64
2021/12/24 04:51:26;;;;;;;0.40;0.40;;;4.40;99.90;;;;;;4443037;32;20120;-64
2021/12/24 04:52:35;;;;;;;0.37;0.37;;;4.40;99.90;;;;;;4438085;32;20065;-63
2021/12/24 05:01:40;;;;;;;0.43;0.43;;;4.50;99.90;;;;;;4433894;32;20081;-65
2021/12/24 05:03:26;;;;;;;0.45;0.45;;;4.60;99.90;;;;;;4440053;32;20069;-64
2021/12/24 05:06:05;;;;;;;1.27;0.85;;;4.50;99.90;;;;;;4451241;32;20621;-64
2021/12/24 05:08:39;;;;;;;1.55;0.80;;;4.60;99.90;;;;;;4440579;32;20068;-64
2021/12/24 05:11:10;;;;;;;1.23;0.70;;;4.60;99.90;;;;;;4444280;32;20069;-63
2021/12/24 05:13:37;;;;;;;0.37;0.37;;;4.60;99.90;;;;;;4448261;32;20057;-64
2021/12/24 05:16:13;;;;;;;0.40;0.40;;;4.60;99.90;;;;;;4443629;32;20065;-64
2021/12/24 05:21:42;;;;;;;0.30;0.30;;;4.70;99.90;;;;;;4439067;32;20115;-64
2021/12/24 05:24:13;;;;;;;0.40;0.40;;;4.70;99.90;;;;;;4445643;32;20473;-64
2021/12/24 05:26:41;;;;;;;0.35;0.35;;;4.70;99.90;;;;;;4447422;32;20074;-65
2021/12/24 05:29:06;;;;;;;0.30;0.30;;;4.70;99.90;;;;;;4438276;32;20077;-64
2021/12/24 05:31:33;;;;;;;0.57;0.57;;;4.70;99.90;;;;;;4446436;32;20064;-63
2021/12/24 05:33:59;;;;;;;0.80;0.57;;;4.80;99.90;;;;;;4442853;32;20065;-64
2021/12/24 05:36:25;;;;;;;0.40;0.40;;;4.80;99.90;;;;;;4456536;32;20064;-64
2021/12/24 05:38:50;;;;;;;0.77;0.77;;;4.80;99.90;;;;;;4448220;32;20533;-64
2021/12/24 05:41:18;;;;;;;0.80;0.73;;;4.90;99.90;;;;;;4448335;32;20072;-64
2021/12/24 05:43:44;;;;;;;0.55;0.55;;;4.90;99.90;;;;;;4443296;32;20061;-64
2021/12/24 05:46:10;;;;;;;0.43;0.43;;;4.90;99.90;;;;;;4444003;32;20081;-63
2021/12/24 05:48:36;;;;;;;0.30;0.30;;;4.90;99.90;;;;;;4445816;32;20092;-64
2021/12/24 05:51:02;;;;;;;0.57;0.57;;;4.90;99.90;;;;;;4449725;32;20068;-64
2021/12/24 05:53:28;;;;;;;0.30;0.30;;;4.90;99.90;;;;;;4445266;32;20539;-64
2021/12/24 05:55:53;;;;;;;0.30;0.30;;;5.00;99.90;;;;;;4456492;32;20114;-64
2021/12/24 05:58:19;;;;;;;0.30;0.30;;;5.00;99.90;;;;;;4459882;32;20084;-63
2021/12/24 06:00:46;;;;;;;0.30;0.30;;;5.00;99.90;;;;;;4442716;32;20056;-63
2021/12/24 06:03:11;;;;;;;0.28;0.28;;;5.00;99.90;;;;;;4442288;32;20684;-64
2021/12/24 06:05:38;;;;;;;0.20;0.20;;;5.00;99.90;;;;;;4444299;32;20088;-64
2021/12/24 06:08:05;;;;;;;0.45;0.45;;;5.00;99.90;;;;;;4429741;32;20521;-65
2021/12/24 06:10:32;;;;;;;0.60;0.60;;;5.00;99.90;;;;;;4442288;32;20072;-63
2021/12/24 06:12:58;;;;;;;0.30;0.30;;;5.10;99.90;;;;;;4436266;32;20519;-64
2021/12/24 06:15:26;;;;;;;0.40;0.40;;;5.10;99.90;;;;;;4431054;32;20057;-64
2021/12/24 06:17:55;;;;;;;0.30;0.30;;;5.10;99.90;;;;;;4443369;32;20064;-63
2021/12/24 06:20:22;;;;;;;0.30;0.30;;;5.10;99.90;;;;;;4451449;32;20525;-64
2021/12/24 06:22:48;;;;;;;0.30;0.30;;;5.10;99.90;;;;;;4455415;32;20070;-64
2021/12/24 06:25:15;;;;;;;0.60;0.43;;;5.20;99.90;;;;;;4453873;32;20069;-64
2021/12/24 06:27:40;;;;;;;0.40;0.40;;;5.20;99.90;;;;;;4458549;32;20523;-63
2021/12/24 06:30:07;;;;;;;0.30;0.30;;;5.20;99.90;;;;;;4443065;32;20066;-64
2021/12/24 06:32:33;;;;;;;0.40;0.40;;;5.30;99.90;;;;;;4437427;32;20073;-63
2021/12/24 06:34:58;;;;;;;0.22;0.22;;;5.30;99.90;;;;;;4447826;32;20116;-64
2021/12/24 06:37:25;;;;;;;0.37;0.37;;;5.30;99.90;;;;;;4446158;32;20064;-64
2021/12/24 06:39:51;;;;;;;0.30;0.30;;;5.30;99.90;;;;;;4442261;32;20081;-64
2021/12/24 06:42:17;;;;;;;0.28;0.28;;;5.30;99.90;;;;;;4454891;32;20057;-64
2021/12/24 06:44:42;;;;;;;0.52;0.52;;;5.30;99.90;;;;;;4433387;32;20073;-64
2021/12/24 06:47:08;;;;;;;0.65;0.43;;;5.30;99.90;;;;;;4446929;32;20068;-63
2021/12/24 06:49:33;;;;;;;0.30;0.30;;;5.40;99.90;;;;;;4445604;32;20512;-64
2021/12/24 06:51:59;;;;;;;0.30;0.30;;;5.40;99.90;;;;;;4451362;32;20069;-63
2021/12/24 06:54:25;;;;;;;0.30;0.30;;;5.40;99.90;;;;;;4457547;32;20122;-65
2021/12/24 06:56:51;;;;;;;0.30;0.30;;;5.40;99.90;;;;;;4460113;32;20132;-64
2021/12/24 06:59:16;;;;;;;0.40;0.40;;;5.40;99.90;;;;;;4458000;32;20074;-64
2021/12/24 07:01:42;;;;;;;0.37;0.37;;;5.50;99.90;;;;;;4450929;32;20072;-64
2021/12/24 07:04:08;;;;;;;0.40;0.40;;;5.50;99.90;;;;;;4453671;32;20104;-64
2021/12/24 07:06:34;;;;;;;0.45;0.45;;;5.50;99.90;;;;;;4440212;32;20092;-64
2021/12/24 07:08:59;;;;;;;0.50;0.35;;;5.50;99.90;;;;;;4431338;32;20064;-63
2021/12/24 07:11:25;;;;;;;0.30;0.30;;;5.50;99.90;;;;;;4445636;32;20069;-63
2021/12/24 07:13:51;;;;;;;0.40;0.40;;;5.50;99.90;;;;;;4448152;32;20122;-64
2021/12/24 07:16:17;;;;;;;0.20;0.20;;;5.50;99.90;;;;;;4445243;32;20061;-64
2021/12/24 07:18:43;;;;;;;0.30;0.30;;;5.50;99.90;;;;;;4444828;32;20053;-64
2021/12/24 07:21:08;;;;;;;0.30;0.30;;;5.50;99.90;;;;;;4447212;32;20084;-64
2021/12/24 07:23:34;;;;;;;0.30;0.30;;;5.50;99.90;;;;;;4448623;32;20061;-64
2021/12/24 07:26:00;;;;;;;0.30;0.30;;;5.50;99.90;;;;;;4459942;32;20119;-64
2021/12/24 07:28:26;;;;;;;0.30;0.30;;;5.60;99.90;;;;;;4454617;32;20057;-63
2021/12/24 07:30:51;;;;;;;0.50;0.50;;;5.60;99.90;;;;;;4444045;32;20073;-64
2021/12/24 07:33:17;;;;;;;0.40;0.40;;;5.60;99.90;;;;;;4445232;32;20086;-65
2021/12/24 07:35:44;;;;;;;0.37;0.37;;;5.60;99.90;;;;;;4444669;32;20077;-65
2021/12/24 07:38:13;;;;;;;0.40;0.40;;;5.70;99.90;;;;;;4445025;32;20092;-64
2021/12/24 07:40:39;;;;;;;0.30;0.30;;;5.70;99.90;;;;;;4442052;32;20415;-63
2021/12/24 07:43:05;;;;;;;0.30;0.30;;;5.70;99.90;;;;;;4447544;32;20073;-64
2021/12/24 07:45:30;;;;;;;0.30;0.30;;;5.60;99.90;;;;;;4450287;32;20115;-65
2021/12/24 07:48:13;;;;;;;0.30;0.30;;;5.70;99.90;;;;;;4445501;32;20081;-64
2021/12/24 07:53:10;;;;;;;0.30;0.30;;;5.70;99.90;;;;;;4451254;32;20122;-65
2021/12/24 07:55:37;;;;;;;0.30;0.30;;;5.70;99.90;;;;;;4455342;32;20057;-64
2021/12/24 07:58:03;;;;;;;0.30;0.30;;;5.70;99.90;;;;;;4448662;32;20076;-64
2021/12/24 08:00:29;;;;;;;0.30;0.30;;;5.80;99.90;;;;;;4444408;32;20077;-64
2021/12/24 08:02:56;;;;;;;0.30;0.30;;;5.80;99.90;;;;;;4437019;32;20061;-65
2021/12/24 08:05:24;;;;;;;0.47;0.47;;;5.80;99.90;;;;;;4451722;32;20162;-64
2021/12/24 08:07:51;;;;;;;0.30;0.30;;;5.80;99.90;;;;;;4447919;32;20128;-63
2021/12/24 08:10:16;;;;;;;0.40;0.40;;;5.80;99.90;;;;;;4445480;32;20056;-63
2021/12/24 08:12:42;;;;;;;0.30;0.30;;;5.90;99.90;;;;;;4454341;32;20081;-63
2021/12/24 08:15:08;;;;;;;0.30;0.30;;;5.90;99.90;;;;;;4455642;32;20068;-63
2021/12/24 08:17:34;;;;;;;0.30;0.30;;;5.90;99.90;;;;;;4456529;32;20044;-63
2021/12/24 08:20:00;;;;;;;0.47;0.47;;;5.90;99.90;;;;;;4444007;32;20065;-63
2021/12/24 08:22:26;;;;;;;0.20;0.20;;;5.90;99.90;;;;;;4447815;32;20563;-63
2021/12/24 08:24:51;;;;;;;0.30;0.30;;;5.90;99.90;;;;;;4442856;32;20115;-63
2021/12/24 08:27:18;;;;;;;0.25;0.25;;;5.90;99.90;;;;;;4443798;32;20073;-63
2021/12/24 08:29:44;;;;;;;0.20;0.20;;;6.00;99.90;;;;;;4443633;32;20061;-63
2021/12/24 08:32:10;;;;;;;0.40;0.40;;;6.00;99.90;;;;;;4443317;32;20568;-63
2021/12/24 08:34:38;;;;;;;3.72;0.75;;;6.00;99.90;;;;;;4453505;32;20470;-63
2021/12/24 08:37:03;;;;;;;7.43;2.67;;;6.00;99.90;;;;;;4433216;32;20119;-63
2021/12/24 08:39:29;;;;;;;0.40;0.40;;;6.00;99.90;;;;;;4435544;32;20070;-63
2021/12/24 08:41:55;;;;;;;0.30;0.30;;;6.00;99.90;;;;;;4450968;32;20068;-63
2021/12/24 08:44:22;;;;;;;0.40;0.40;;;6.00;99.90;;;;;;4446562;32;20466;-63
2021/12/24 08:46:48;;;;;;;0.25;0.25;;;6.00;99.90;;;;;;4450977;32;20060;-63
2021/12/24 08:49:13;;;;;;;0.40;0.40;;;6.10;99.90;;;;;;4447520;32;20069;-63
2021/12/24 08:51:39;;;;;;;0.32;0.32;;;6.10;99.90;;;;;;4444684;32;20065;-63
2021/12/24 08:54:04;;;;;;;0.30;0.30;;;6.10;99.90;;;;;;4443406;32;20086;-63
2021/12/24 08:56:30;;;;;;;0.30;0.30;;;6.10;99.90;;;;;;4444496;32;20061;-64
2021/12/24 08:58:56;;;;;;;0.22;0.22;;;6.10;99.90;;;;;;4442647;32;20065;-64
2021/12/24 09:01:22;;;;;;;0.30;0.30;;;6.10;99.90;;;;;;4448953;32;20065;-64
2021/12/24 09:03:47;;;;;;;0.30;0.30;;;6.20;99.90;;;;;;4453137;32;20076;-64
2021/12/24 09:06:13;;;;;;;1.10;0.55;;;6.20;99.90;;;;;;4455811;32;20406;-64
2021/12/24 09:08:42;;;;;;;0.30;0.30;;;6.20;99.90;;;;;;4443871;32;20070;-64
2021/12/24 09:11:08;;;;;;;0.32;0.32;;;6.20;99.90;;;;;;4443428;32;20058;-64
2021/12/24 09:13:33;;;;;;;0.30;0.30;;;6.20;99.90;;;;;;4446175;32;20104;-64
2021/12/24 09:15:59;;;;;;;0.30;0.30;;;6.20;99.90;;;;;;4448977;32;20497;-64
2021/12/24 09:18:24;;;;;;;0.24;0.24;;;6.20;99.90;;;;;;4443765;32;20127;-64
2021/12/24 09:20:50;;;;;;;0.30;0.30;;;6.20;99.90;;;;;;4447521;32;20065;-64
2021/12/24 09:23:18;;;;;;;0.30;0.30;;;6.20;99.90;;;;;;4451997;32;20072;-63
2021/12/24 09:25:44;;;;;;;1.10;0.60;;;6.20;99.90;;;;;;4460070;32;20056;-63
2021/12/24 09:28:09;;;;;;;0.30;0.30;;;6.30;99.90;;;;;;4445893;32;20208;-62
2021/12/24 09:30:36;;;;;;;0.50;0.50;;;6.20;99.90;;;;;;4443115;32;20090;-63
2021/12/24 09:33:03;;;;;;;0.30;0.30;;;6.20;99.90;;;;;;4443210;32;20435;-63
2021/12/24 09:35:29;;;;;;;0.52;0.30;;;6.30;99.90;;;;;;4443545;32;20056;-63
2021/12/24 09:37:55;;;;;;;0.20;0.20;;;6.30;99.90;;;;;;4444662;32;20089;-64
2021/12/24 09:40:21;;;;;;;0.30;0.30;;;6.30;99.90;;;;;;4429970;32;20117;-64
2021/12/24 09:42:47;;;;;;;0.30;0.30;;;6.20;99.90;;;;;;4440179;32;20504;-64
2021/12/24 09:45:14;;;;;;;0.45;0.45;;;6.30;99.90;;;;;;4447289;32;20073;-63
2021/12/24 09:47:41;;;;;;;0.30;0.30;;;6.30;99.90;;;;;;4443256;32;20131;-64
2021/12/24 09:50:09;;;;;;;0.30;0.30;;;6.20;99.90;;;;;;4444591;32;20118;-64
2021/12/24 09:52:38;;;;;;;0.20;0.20;;;6.20;99.90;;;;;;4443659;32;20068;-63
2021/12/24 09:55:09;;;;;;;0.20;0.20;;;6.20;99.90;;;;;;4434222;32;20099;-62
2021/12/24 09:57:35;;;;;;;0.65;0.50;;;6.20;99.90;;;;;;4441274;32;20093;-63
2021/12/24 10:00:00;;;;;;;0.30;0.30;;;6.20;99.90;;;;;;4457264;32;20061;-63
2021/12/24 10:02:39;;;;;;;0.40;0.40;;;6.30;99.90;;;;;;4445633;32;20073;-63
2021/12/24 10:05:39;;;;;;;0.20;0.20;;;6.20;99.90;;;;;;4444751;32;20065;-63
2021/12/24 10:08:11;;;;;;;0.37;0.37;;;6.20;99.90;;;;;;4446020;32;20069;-63
2021/12/24 10:10:41;;;;;;;0.32;0.32;;;6.20;99.90;;;;;;4447542;32;20053;-63
2021/12/24 10:13:27;;;;;;;;;;;6.20;99.90;;;;;;4453179;32;20608;-64
2021/12/24 10:15:54;;;;;;;0.22;0.22;;;6.30;99.90;;;;;;4439683;32;19952;-63
2021/12/24 10:18:29;;;;;;;0.40;0.40;;;6.20;99.90;;;;;;4441406;32;20096;-64
2021/12/24 10:21:13;;;;;;;0.30;0.30;;;6.20;99.90;;;;;;4452740;32;20143;-63
2021/12/24 10:23:41;;;;;;;0.20;0.20;;;6.20;99.90;;;;;;4446132;32;20514;-63
2021/12/24 10:26:17;;;;;;;0.40;0.40;;;6.10;99.90;;;;;;4446619;32;20082;-64
2021/12/24 10:28:53;;;;;;;0.45;0.45;;;6.20;99.90;;;;;;4444868;32;20065;-63
2021/12/24 10:31:21;;;;;;;0.30;0.30;;;6.20;99.90;;;;;;4451830;32;20118;-63
2021/12/24 10:34:09;;;;;;;0.75;0.75;;;6.10;99.90;;;;;;4435141;32;20077;-63
2021/12/24 10:36:52;;;;;;;0.30;0.30;;;6.20;99.90;;;;;;4444744;32;20064;-63
2021/12/24 10:39:19;;;;;;;24.85;3.90;;;6.20;99.90;;;;;;4444384;32;20579;-63
2021/12/24 10:41:48;;;;;;;0.25;0.25;;;6.10;99.90;;;;;;4446946;32;20057;-63
2021/12/24 10:44:18;;;;;;;0.25;0.25;;;6.10;99.90;;;;;;4438492;32;20487;-63
2021/12/24 10:47:01;;;;;;;0.32;0.32;;;6.20;99.90;;;;;;4446821;32;20517;-63
2021/12/24 10:49:48;;;;;;;0.32;0.32;;;6.20;99.90;;;;;;4443358;32;20089;-63
2021/12/24 10:55:08;;;;;;;0.30;0.30;;;6.20;99.90;;;;;;4447282;32;20120;-64
2021/12/24 10:57:36;;;;;;;0.30;0.30;;;6.20;99.90;;;;;;4442304;32;20480;-64
2021/12/24 11:00:14;;;;;;;0.30;0.30;;;6.10;99.90;;;;;;4446448;32;20141;-64
2021/12/24 11:02:40;;;;;;;0.30;0.30;;;6.10;99.90;;;;;;4452726;32;20084;-64
2021/12/24 11:05:33;;;;;;;0.30;0.30;;;6.10;99.90;;;;;;4446642;32;20053;-64
2021/12/24 11:08:01;;;;;;;0.30;0.30;;;6.00;99.90;;;;;;4429855;32;20061;-64
2021/12/24 11:10:30;;;;;;;0.20;0.20;;;6.00;99.90;;;;;;4454435;32;20077;-64
2021/12/24 11:12:58;;;;;;;0.50;0.50;;;6.00;99.90;;;;;;4432092;32;20509;-64
2021/12/24 11:15:31;;;;;;;0.25;0.25;;;6.00;99.90;;;;;;4447916;32;20140;-64
2021/12/24 11:18:03;;;;;;;0.30;0.30;;;6.00;99.90;;;;;;4446099;32;20061;-64
2021/12/24 11:20:30;;;;;;;0.35;0.35;;;6.10;99.90;;;;;;4447589;32;20104;-64
2021/12/24 11:22:59;;;;;;;0.30;0.30;;;6.00;99.90;;;;;;4444702;32;20077;-64
2021/12/24 11:25:27;;;;;;;0.65;0.65;;;6.00;99.90;;;;;;4446538;32;20097;-64
2021/12/24 11:27:54;;;;;;;0.37;0.37;;;6.10;99.90;;;;;;4452018;32;20916;-64
2021/12/24 11:30:21;;;;;;;0.30;0.30;;;6.10;99.90;;;;;;4449124;32;20073;-64
2021/12/24 11:32:48;;;;;;;0.30;0.30;;;6.00;99.90;;;;;;4452028;32;20545;-64
2021/12/24 11:35:14;;;;;;;0.40;0.40;;;6.00;99.90;;;;;;4454523;32;20500;-63
2021/12/24 11:37:44;;;;;;;0.30;0.30;;;6.00;99.90;;;;;;4449742;32;20081;-63
2021/12/24 11:40:13;;;;;;;0.30;0.30;;;6.00;99.90;;;;;;4438435;32;20065;-65
2021/12/24 11:42:40;;;;;;;0.40;0.40;;;6.10;99.90;;;;;;4446277;32;20140;-63
2021/12/24 11:45:06;;;;;;;0.30;0.30;;;6.10;99.90;;;;;;4441356;32;20116;-65
2021/12/24 11:47:33;;;;;;;0.30;0.30;;;6.00;99.90;;;;;;4458639;32;20443;-64
2021/12/24 11:49:59;;;;;;;0.40;0.40;;;6.00;99.90;;;;;;4457956;32;20053;-65
2021/12/24 11:52:26;;;;;;;0.30;0.30;;;6.10;99.90;;;;;;4435726;32;20550;-65
2021/12/24 11:54:54;;;;;;;0.37;0.37;;;6.10;99.90;;;;;;4439456;32;20531;-65
2021/12/24 11:57:21;;;;;;;0.30;0.30;;;6.10;99.90;;;;;;4441845;32;20105;-64
2021/12/24 11:59:48;;;;;;;1.05;0.37;;;6.00;99.90;;;;;;4438666;32;20431;-65
2021/12/24 12:02:36;;;;;;;0.30;0.30;;;5.90;99.90;;;;;;4442114;32;20056;-64
2021/12/24 12:05:24;;;;;;;0.30;0.30;;;5.80;99.90;;;;;;4442307;32;20410;-64
2021/12/24 12:07:52;;;;;;;0.20;0.20;;;5.80;99.90;;;;;;4429658;32;20139;-63
2021/12/24 12:10:59;;;;;;;0.37;0.37;;;5.70;99.90;;;;;;4430294;32;20576;-64
2021/12/24 12:13:43;;;;;;;0.30;0.30;;;5.50;99.90;;;;;;4432253;32;20061;-64
2021/12/24 12:16:13;;;;;;;0.30;0.30;;;5.50;99.90;;;;;;4430420;32;20396;-64
2021/12/24 12:18:48;;;;;;;0.20;0.20;;;5.50;99.90;;;;;;4439906;32;20566;-64
2021/12/24 12:21:21;;;;;;;0.30;0.30;;;5.40;99.90;;;;;;4445234;32;20521;-64
2021/12/24 12:24:05;;;;;;;0.30;0.30;;;5.40;99.90;;;;;;4444354;32;20061;-64
2021/12/24 12:26:37;;;;;;;0.30;0.30;;;5.30;99.90;;;;;;4443917;32;20065;-63
2021/12/24 12:29:25;;;;;;;0.30;0.30;;;5.20;99.90;;;;;;4442251;32;20596;-64
2021/12/24 12:32:03;;;;;;;0.60;0.60;;;5.10;99.90;;;;;;4433879;32;20079;-63
2021/12/24 12:34:46;;;;;;;0.30;0.30;;;5.00;99.90;;;;;;4442481;32;20093;-63
2021/12/24 12:37:16;;;;;;;0.40;0.40;;;4.90;99.90;;;;;;4445550;32;20054;-63
2021/12/24 12:39:42;;;;;;;0.37;0.37;;;4.90;99.90;;;;;;4438066;32;20073;-63
2021/12/24 12:42:08;;;;;;;0.73;0.37;;;4.80;99.90;;;;;;4443378;32;20082;-63
2021/12/24 12:44:37;;;;;;;0.30;0.30;;;4.70;99.90;;;;;;4444515;32;20064;-63
2021/12/24 12:47:21;;;;;;;0.40;0.40;;;4.70;99.90;;;;;;4444579;32;20048;-63
2021/12/24 12:49:48;;;;;;;0.30;0.30;;;4.70;99.90;;;;;;4442447;32;20069;-63
2021/12/24 12:52:31;;;;;;;1.02;0.45;;;4.70;99.90;;;;;;4442685;32;20094;-63
2021/12/24 12:54:58;;;;;;;0.30;0.30;;;4.60;99.90;;;;;;4443528;32;20301;-64
2021/12/24 12:57:29;;;;;;;0.75;0.75;;;4.60;99.90;;;;;;4443843;32;20057;-64
2021/12/24 13:00:18;;;;;;;0.30;0.30;;;4.60;99.90;;;;;;4442900;32;20058;-64
2021/12/24 13:05:53;;;;;;;0.30;0.30;;;4.60;99.90;;;;;;4442215;32;20140;-65
2021/12/24 13:08:21;;;;;;;0.30;0.30;;;4.60;99.90;;;;;;4439415;32;20065;-64
2021/12/24 13:11:12;;;;;;;0.30;0.30;;;4.60;99.90;;;;;;4430863;32;20057;-64
2021/12/24 13:13:53;;;;;;;0.40;0.40;;;4.50;99.90;;;;;;4441766;32;20057;-64
2021/12/24 13:16:24;;;;;;;0.32;0.32;;;4.40;99.90;;;;;;4440413;32;20073;-63
2021/12/24 13:18:58;;;;;;;0.30;0.30;;;4.40;99.90;;;;;;4443838;32;20099;-63
2021/12/24 13:22:33;;;;;;;0.30;0.30;;;4.30;99.90;;;;;;4442801;32;20074;-63
2021/12/24 13:24:13;;;;;;;0.32;0.32;;;4.10;99.90;;;;;;4430158;32;20116;-63
2021/12/24 13:26:39;;;;;;;0.30;0.30;;;4.10;99.90;;;;;;4436253;32;20086;-63
2021/12/24 13:29:12;;;;;;;0.30;0.30;;;4.10;99.90;;;;;;4442568;32;20541;-64
2021/12/24 13:31:40;;;;;;;3.03;0.80;;;4.10;99.90;;;;;;4444196;32;20072;-63
2021/12/24 13:34:11;;;;;;;0.30;0.30;;;4.10;99.90;;;;;;4445636;32;20077;-65
2021/12/24 13:36:36;;;;;;;;;;;4.00;99.90;;;;;;4447347;32;20561;-64
2021/12/24 13:39:11;;;;;;;0.30;0.30;;;3.90;99.90;;;;;;4440946;32;19949;-64
2021/12/24 13:41:38;;;;;;;0.30;0.30;;;3.90;99.90;;;;;;4438719;32;20061;-64
2021/12/24 13:44:05;;;;;;;0.40;0.40;;;3.80;99.90;;;;;;4441632;32;20129;-63
2021/12/24 13:46:34;;;;;;;0.30;0.30;;;3.80;99.90;;;;;;4444761;32;20207;-64
2021/12/24 13:54:32;;;;;;;0.30;0.30;;;3.50;99.90;;;;;;4433553;32;20566;-63
2021/12/24 13:56:57;;;;;;;0.30;0.30;;;3.60;99.90;;;;;;4442200;32;20070;-63
2021/12/24 13:59:24;;;;;;;0.75;0.68;;;3.70;99.90;;;;;;4444548;32;20083;-64
2021/12/24 14:01:51;;;;;;;0.40;0.40;;;3.70;99.90;;;;;;4444775;32;20118;-62
2021/12/24 14:04:18;;;;;;;0.40;0.40;;;3.70;99.90;;;;;;4446368;32;20073;-63
2021/12/24 14:06:48;;;;;;;0.35;0.35;;;3.60;99.90;;;;;;4445293;32;20049;-63
2021/12/24 14:09:18;;;;;;;0.30;0.30;;;3.60;99.90;;;;;;4445768;32;20069;-63
2021/12/24 14:11:45;;;;;;;0.40;0.40;;;3.60;99.90;;;;;;4431772;32;20481;-63
2021/12/24 14:14:16;;;;;;;0.37;0.37;;;3.50;99.90;;;;;;4443642;32;20525;-64
2021/12/24 14:19:17;;;;;;;0.30;0.30;;;3.40;99.90;;;;;;4444785;32;20061;-63